sensor_id;sensor_type;location;lat;lon;timestamp;P1;durP1;ratioP1;P2;durP2;ratioP2
78053;SDS011;67726;45.636;11.752;2023-10-13T00:01:58;116.70;;;49.60;;
78053;SDS011;67726;45.636;11.752;2023-10-13T00:04:26;130.52;;;54.85;;
78053;SDS011;67726;45.636;11.752;2023-10-13T00:06:52;112.70;;;50.33;;
78053;SDS011;67726;45.636;11.752;2023-10-13T00:09:21;106.35;;;48.28;;
78053;SDS011;67726;45.636;11.752;2023-10-13T00:11:57;116.85;;;52.05;;
78053;SDS011;67726;45.636;11.752;2023-10-13T00:14:23;107.87;;;47.63;;
78053;SDS011;67726;45.636;11.752;2023-10-13T00:16:58;119.32;;;49.95;;
78053;SDS011;67726;45.636;11.752;2023-10-13T00:19:36;123.90;;;50.60;;
78053;SDS011;67726;45.636;11.752;2023-10-13T00:22:04;134.20;;;55.83;;
78053;SDS011;67726;45.636;11.752;2023-10-13T00:24:37;129.73;;;55.38;;
78053;SDS011;67726;45.636;11.752;2023-10-13T00:27:14;130.73;;;54.13;;
78053;SDS011;67726;45.636;11.752;2023-10-13T00:29:57;123.22;;;52.55;;
78053;SDS011;67726;45.636;11.752;2023-10-13T00:32:46;124.78;;;52.58;;
78053;SDS011;67726;45.636;11.752;2023-10-13T00:35:24;135.63;;;54.47;;
78053;SDS011;67726;45.636;11.752;2023-10-13T00:37:57;138.32;;;56.10;;
78053;SDS011;67726;45.636;11.752;2023-10-13T00:40:29;133.63;;;55.30;;
78053;SDS011;67726;45.636;11.752;2023-10-13T00:42:56;135.40;;;56.10;;
78053;SDS011;67726;45.636;11.752;2023-10-13T00:45:42;131.70;;;56.35;;
78053;SDS011;67726;45.636;11.752;2023-10-13T00:48:28;131.80;;;57.13;;
78053;SDS011;67726;45.636;11.752;2023-10-13T00:51:07;130.40;;;53.80;;
78053;SDS011;67726;45.636;11.752;2023-10-13T00:53:34;125.77;;;53.00;;
78053;SDS011;67726;45.636;11.752;2023-10-13T00:56:05;130.98;;;54.22;;
78053;SDS011;67726;45.636;11.752;2023-10-13T00:58:43;125.38;;;55.67;;
78053;SDS011;67726;45.636;11.752;2023-10-13T01:01:15;124.15;;;54.25;;
78053;SDS011;67726;45.636;11.752;2023-10-13T01:03:50;127.97;;;53.95;;
78053;SDS011;67726;45.636;11.752;2023-10-13T01:06:23;129.53;;;55.87;;
78053;SDS011;67726;45.636;11.752;2023-10-13T01:08:59;128.35;;;53.55;;
78053;SDS011;67726;45.636;11.752;2023-10-13T01:11:45;139.98;;;60.35;;
78053;SDS011;67726;45.636;11.752;2023-10-13T01:14:17;135.82;;;56.85;;
78053;SDS011;67726;45.636;11.752;2023-10-13T01:16:48;132.30;;;55.97;;
78053;SDS011;67726;45.636;11.752;2023-10-13T01:19:17;121.17;;;53.63;;
78053;SDS011;67726;45.636;11.752;2023-10-13T01:21:50;122.38;;;56.47;;
78053;SDS011;67726;45.636;11.752;2023-10-13T01:24:21;123.03;;;54.63;;
78053;SDS011;67726;45.636;11.752;2023-10-13T01:26:49;124.57;;;53.80;;
78053;SDS011;67726;45.636;11.752;2023-10-13T01:29:17;126.82;;;58.80;;
78053;SDS011;67726;45.636;11.752;2023-10-13T01:31:45;130.30;;;55.67;;
78053;SDS011;67726;45.636;11.752;2023-10-13T01:34:18;138.38;;;58.90;;
78053;SDS011;67726;45.636;11.752;2023-10-13T01:36:56;142.95;;;60.40;;
78053;SDS011;67726;45.636;11.752;2023-10-13T01:39:22;142.68;;;62.40;;
78053;SDS011;67726;45.636;11.752;2023-10-13T01:41:53;142.95;;;60.97;;
78053;SDS011;67726;45.636;11.752;2023-10-13T01:44:20;138.43;;;60.50;;
78053;SDS011;67726;45.636;11.752;2023-10-13T01:46:53;140.18;;;61.40;;
78053;SDS011;67726;45.636;11.752;2023-10-13T01:49:19;148.77;;;63.95;;
78053;SDS011;67726;45.636;11.752;2023-10-13T01:51:47;148.70;;;64.50;;
78053;SDS011;67726;45.636;11.752;2023-10-13T01:54:13;138.90;;;60.13;;
78053;SDS011;67726;45.636;11.752;2023-10-13T01:56:40;147.80;;;61.60;;
78053;SDS011;67726;45.636;11.752;2023-10-13T01:59:12;139.55;;;60.70;;
78053;SDS011;67726;45.636;11.752;2023-10-13T02:01:38;149.18;;;63.90;;
78053;SDS011;67726;45.636;11.752;2023-10-13T02:04:06;152.18;;;63.15;;
78053;SDS011;67726;45.636;11.752;2023-10-13T02:06:36;159.63;;;63.60;;
78053;SDS011;67726;45.636;11.752;2023-10-13T02:09:06;141.80;;;62.08;;
78053;SDS011;67726;45.636;11.752;2023-10-13T02:11:39;141.88;;;59.85;;
78053;SDS011;67726;45.636;11.752;2023-10-13T02:14:06;140.95;;;61.03;;
78053;SDS011;67726;45.636;11.752;2023-10-13T02:16:32;150.38;;;64.07;;
78053;SDS011;67726;45.636;11.752;2023-10-13T02:18:58;145.30;;;62.33;;
78053;SDS011;67726;45.636;11.752;2023-10-13T02:21:32;153.93;;;65.68;;
78053;SDS011;67726;45.636;11.752;2023-10-13T02:24:00;142.77;;;60.50;;
78053;SDS011;67726;45.636;11.752;2023-10-13T02:26:31;152.60;;;62.07;;
78053;SDS011;67726;45.636;11.752;2023-10-13T02:28:58;140.60;;;60.70;;
78053;SDS011;67726;45.636;11.752;2023-10-13T02:31:27;135.27;;;58.13;;
78053;SDS011;67726;45.636;11.752;2023-10-13T02:33:52;125.97;;;57.25;;
78053;SDS011;67726;45.636;11.752;2023-10-13T02:36:18;145.10;;;63.33;;
78053;SDS011;67726;45.636;11.752;2023-10-13T02:39:01;147.13;;;60.83;;
78053;SDS011;67726;45.636;11.752;2023-10-13T02:41:33;142.68;;;59.28;;
78053;SDS011;67726;45.636;11.752;2023-10-13T02:44:03;145.18;;;61.90;;
78053;SDS011;67726;45.636;11.752;2023-10-13T02:46:35;152.32;;;65.03;;
78053;SDS011;67726;45.636;11.752;2023-10-13T02:49:02;141.57;;;60.90;;
78053;SDS011;67726;45.636;11.752;2023-10-13T02:51:38;144.65;;;59.58;;
78053;SDS011;67726;45.636;11.752;2023-10-13T02:54:07;129.85;;;58.72;;
78053;SDS011;67726;45.636;11.752;2023-10-13T02:56:35;146.85;;;62.63;;
78053;SDS011;67726;45.636;11.752;2023-10-13T02:59:02;147.07;;;63.67;;
78053;SDS011;67726;45.636;11.752;2023-10-13T03:01:34;140.60;;;60.23;;
78053;SDS011;67726;45.636;11.752;2023-10-13T03:04:03;156.70;;;63.88;;
78053;SDS011;67726;45.636;11.752;2023-10-13T03:06:33;145.38;;;64.38;;
78053;SDS011;67726;45.636;11.752;2023-10-13T03:09:01;143.35;;;61.45;;
78053;SDS011;67726;45.636;11.752;2023-10-13T03:11:45;159.98;;;65.60;;
78053;SDS011;67726;45.636;11.752;2023-10-13T03:14:23;152.00;;;63.63;;
78053;SDS011;67726;45.636;11.752;2023-10-13T03:16:59;153.30;;;64.35;;
78053;SDS011;67726;45.636;11.752;2023-10-13T03:19:34;162.95;;;64.55;;
78053;SDS011;67726;45.636;11.752;2023-10-13T03:22:03;144.68;;;62.30;;
78053;SDS011;67726;45.636;11.752;2023-10-13T03:24:33;151.23;;;61.80;;
78053;SDS011;67726;45.636;11.752;2023-10-13T03:26:59;149.87;;;61.13;;
78053;SDS011;67726;45.636;11.752;2023-10-13T03:29:37;153.63;;;61.80;;
78053;SDS011;67726;45.636;11.752;2023-10-13T03:32:08;156.45;;;66.32;;
78053;SDS011;67726;45.636;11.752;2023-10-13T03:34:38;143.10;;;62.77;;
78053;SDS011;67726;45.636;11.752;2023-10-13T03:37:17;135.80;;;58.30;;
78053;SDS011;67726;45.636;11.752;2023-10-13T03:40:10;136.90;;;60.60;;
78053;SDS011;67726;45.636;11.752;2023-10-13T03:42:52;145.00;;;60.78;;
78053;SDS011;67726;45.636;11.752;2023-10-13T03:45:35;146.38;;;59.25;;
78053;SDS011;67726;45.636;11.752;2023-10-13T03:48:07;144.77;;;60.30;;
78053;SDS011;67726;45.636;11.752;2023-10-13T03:50:38;152.90;;;65.22;;
78053;SDS011;67726;45.636;11.752;2023-10-13T03:53:23;154.70;;;64.20;;
78053;SDS011;67726;45.636;11.752;2023-10-13T03:55:50;143.05;;;61.78;;
78053;SDS011;67726;45.636;11.752;2023-10-13T03:58:33;149.52;;;61.58;;
78053;SDS011;67726;45.636;11.752;2023-10-13T04:01:04;146.00;;;62.87;;
78053;SDS011;67726;45.636;11.752;2023-10-13T04:03:35;155.02;;;63.85;;
78053;SDS011;67726;45.636;11.752;2023-10-13T04:06:01;161.70;;;66.45;;
78053;SDS011;67726;45.636;11.752;2023-10-13T04:08:33;149.25;;;64.55;;
78053;SDS011;67726;45.636;11.752;2023-10-13T04:11:07;164.23;;;66.60;;
78053;SDS011;67726;45.636;11.752;2023-10-13T04:13:52;165.10;;;70.70;;
78053;SDS011;67726;45.636;11.752;2023-10-13T04:16:36;161.85;;;69.10;;
78053;SDS011;67726;45.636;11.752;2023-10-13T04:19:03;161.25;;;66.28;;
78053;SDS011;67726;45.636;11.752;2023-10-13T04:21:33;149.85;;;64.30;;
78053;SDS011;67726;45.636;11.752;2023-10-13T04:24:08;154.18;;;63.63;;
78053;SDS011;67726;45.636;11.752;2023-10-13T04:26:44;152.67;;;64.23;;
78053;SDS011;67726;45.636;11.752;2023-10-13T04:29:29;147.85;;;63.85;;
78053;SDS011;67726;45.636;11.752;2023-10-13T04:32:13;160.15;;;67.40;;
78053;SDS011;67726;45.636;11.752;2023-10-13T04:34:43;153.23;;;65.55;;
78053;SDS011;67726;45.636;11.752;2023-10-13T04:37:11;159.75;;;65.40;;
78053;SDS011;67726;45.636;11.752;2023-10-13T04:40:07;147.77;;;62.47;;
78053;SDS011;67726;45.636;11.752;2023-10-13T04:42:36;159.57;;;65.28;;
78053;SDS011;67726;45.636;11.752;2023-10-13T04:45:15;158.18;;;67.72;;
78053;SDS011;67726;45.636;11.752;2023-10-13T04:47:54;163.90;;;67.45;;
78053;SDS011;67726;45.636;11.752;2023-10-13T04:50:38;165.05;;;65.53;;
78053;SDS011;67726;45.636;11.752;2023-10-13T04:53:15;157.13;;;67.03;;
78053;SDS011;67726;45.636;11.752;2023-10-13T04:56:20;150.30;;;63.95;;
78053;SDS011;67726;45.636;11.752;2023-10-13T04:59:05;151.48;;;61.78;;
78053;SDS011;67726;45.636;11.752;2023-10-13T05:01:49;151.43;;;62.90;;
78053;SDS011;67726;45.636;11.752;2023-10-13T05:04:32;158.80;;;65.03;;
78053;SDS011;67726;45.636;11.752;2023-10-13T05:07:24;155.17;;;62.77;;
78053;SDS011;67726;45.636;11.752;2023-10-13T05:10:08;153.95;;;64.40;;
78053;SDS011;67726;45.636;11.752;2023-10-13T05:12:53;142.85;;;62.33;;
78053;SDS011;67726;45.636;11.752;2023-10-13T05:15:43;154.00;;;65.10;;
78053;SDS011;67726;45.636;11.752;2023-10-13T05:18:30;139.43;;;60.53;;
78053;SDS011;67726;45.636;11.752;2023-10-13T05:21:14;145.97;;;62.90;;
78053;SDS011;67726;45.636;11.752;2023-10-13T05:23:58;129.05;;;58.15;;
78053;SDS011;67726;45.636;11.752;2023-10-13T05:26:42;147.85;;;62.83;;
78053;SDS011;67726;45.636;11.752;2023-10-13T05:29:26;151.40;;;63.53;;
78053;SDS011;67726;45.636;11.752;2023-10-13T05:32:10;161.18;;;66.28;;
78053;SDS011;67726;45.636;11.752;2023-10-13T05:34:54;152.53;;;63.53;;
78053;SDS011;67726;45.636;11.752;2023-10-13T05:37:38;147.27;;;63.78;;
78053;SDS011;67726;45.636;11.752;2023-10-13T05:40:22;146.40;;;62.95;;
78053;SDS011;67726;45.636;11.752;2023-10-13T05:43:07;158.85;;;66.22;;
78053;SDS011;67726;45.636;11.752;2023-10-13T05:45:51;149.68;;;62.00;;
78053;SDS011;67726;45.636;11.752;2023-10-13T05:48:36;143.97;;;60.03;;
78053;SDS011;67726;45.636;11.752;2023-10-13T05:51:19;134.00;;;55.78;;
78053;SDS011;67726;45.636;11.752;2023-10-13T05:54:01;127.07;;;56.20;;
78053;SDS011;67726;45.636;11.752;2023-10-13T05:56:53;122.15;;;53.03;;
78053;SDS011;67726;45.636;11.752;2023-10-13T05:59:38;112.82;;;51.78;;
78053;SDS011;67726;45.636;11.752;2023-10-13T06:02:23;116.13;;;49.27;;
78053;SDS011;67726;45.636;11.752;2023-10-13T06:05:08;112.72;;;48.13;;
78053;SDS011;67726;45.636;11.752;2023-10-13T06:07:54;108.60;;;49.50;;
78053;SDS011;67726;45.636;11.752;2023-10-13T06:10:38;101.90;;;46.25;;
78053;SDS011;67726;45.636;11.752;2023-10-13T06:13:23;98.45;;;44.88;;
78053;SDS011;67726;45.636;11.752;2023-10-13T06:16:08;94.97;;;43.20;;
78053;SDS011;67726;45.636;11.752;2023-10-13T06:18:55;96.65;;;43.92;;
78053;SDS011;67726;45.636;11.752;2023-10-13T06:21:40;97.97;;;43.20;;
78053;SDS011;67726;45.636;11.752;2023-10-13T06:24:24;92.43;;;41.47;;
78053;SDS011;67726;45.636;11.752;2023-10-13T06:27:09;89.40;;;41.50;;
78053;SDS011;67726;45.636;11.752;2023-10-13T06:29:53;95.50;;;42.27;;
78053;SDS011;67726;45.636;11.752;2023-10-13T06:32:19;87.85;;;40.80;;
78053;SDS011;67726;45.636;11.752;2023-10-13T06:34:50;95.75;;;42.47;;
78053;SDS011;67726;45.636;11.752;2023-10-13T06:37:31;91.13;;;41.17;;
78053;SDS011;67726;45.636;11.752;2023-10-13T06:39:59;86.15;;;40.47;;
78053;SDS011;67726;45.636;11.752;2023-10-13T06:42:33;90.57;;;40.93;;
78053;SDS011;67726;45.636;11.752;2023-10-13T06:45:07;92.10;;;41.67;;
78053;SDS011;67726;45.636;11.752;2023-10-13T06:47:34;90.40;;;42.58;;
78053;SDS011;67726;45.636;11.752;2023-10-13T06:50:08;92.03;;;41.60;;
78053;SDS011;67726;45.636;11.752;2023-10-13T06:52:49;96.47;;;42.50;;
78053;SDS011;67726;45.636;11.752;2023-10-13T06:55:19;95.03;;;40.40;;
78053;SDS011;67726;45.636;11.752;2023-10-13T06:58:00;91.97;;;40.70;;
78053;SDS011;67726;45.636;11.752;2023-10-13T07:00:26;92.90;;;39.72;;
78053;SDS011;67726;45.636;11.752;2023-10-13T07:02:55;84.90;;;39.15;;
78053;SDS011;67726;45.636;11.752;2023-10-13T07:05:33;97.38;;;40.63;;
78053;SDS011;67726;45.636;11.752;2023-10-13T07:08:04;83.07;;;39.07;;
78053;SDS011;67726;45.636;11.752;2023-10-13T07:10:34;87.97;;;40.47;;
78053;SDS011;67726;45.636;11.752;2023-10-13T07:13:20;89.53;;;39.15;;
78053;SDS011;67726;45.636;11.752;2023-10-13T07:15:47;85.43;;;38.80;;
78053;SDS011;67726;45.636;11.752;2023-10-13T07:18:16;83.47;;;36.77;;
78053;SDS011;67726;45.636;11.752;2023-10-13T07:20:44;85.32;;;38.85;;
78053;SDS011;67726;45.636;11.752;2023-10-13T07:23:10;86.50;;;39.65;;
78053;SDS011;67726;45.636;11.752;2023-10-13T07:25:42;84.55;;;37.47;;
78053;SDS011;67726;45.636;11.752;2023-10-13T07:28:16;81.63;;;37.30;;
78053;SDS011;67726;45.636;11.752;2023-10-13T07:30:41;78.27;;;37.50;;
78053;SDS011;67726;45.636;11.752;2023-10-13T07:33:15;82.95;;;36.47;;
78053;SDS011;67726;45.636;11.752;2023-10-13T07:35:45;78.68;;;36.90;;
78053;SDS011;67726;45.636;11.752;2023-10-13T07:38:16;70.37;;;35.77;;
78053;SDS011;67726;45.636;11.752;2023-10-13T07:40:43;75.32;;;35.78;;
78053;SDS011;67726;45.636;11.752;2023-10-13T07:43:16;75.45;;;34.58;;
78053;SDS011;67726;45.636;11.752;2023-10-13T07:45:46;75.55;;;35.83;;
78053;SDS011;67726;45.636;11.752;2023-10-13T07:48:15;77.22;;;35.85;;
78053;SDS011;67726;45.636;11.752;2023-10-13T07:50:45;72.90;;;35.90;;
78053;SDS011;67726;45.636;11.752;2023-10-13T07:53:37;83.85;;;37.53;;
78053;SDS011;67726;45.636;11.752;2023-10-13T07:56:06;78.40;;;36.00;;
78053;SDS011;67726;45.636;11.752;2023-10-13T07:58:37;85.38;;;36.78;;
78053;SDS011;67726;45.636;11.752;2023-10-13T08:01:17;78.32;;;36.17;;
78053;SDS011;67726;45.636;11.752;2023-10-13T08:03:46;79.70;;;37.87;;
78053;SDS011;67726;45.636;11.752;2023-10-13T08:06:16;86.13;;;37.47;;
78053;SDS011;67726;45.636;11.752;2023-10-13T08:08:43;83.18;;;38.15;;
78053;SDS011;67726;45.636;11.752;2023-10-13T08:14:00;79.90;;;36.70;;
78053;SDS011;67726;45.636;11.752;2023-10-13T08:16:37;81.13;;;36.33;;
78053;SDS011;67726;45.636;11.752;2023-10-13T08:19:16;91.03;;;37.28;;
78053;SDS011;67726;45.636;11.752;2023-10-13T08:21:52;81.45;;;37.58;;
78053;SDS011;67726;45.636;11.752;2023-10-13T08:24:25;85.60;;;37.50;;
78053;SDS011;67726;45.636;11.752;2023-10-13T08:27:14;87.43;;;38.63;;
78053;SDS011;67726;45.636;11.752;2023-10-13T08:30:00;85.67;;;38.67;;
78053;SDS011;67726;45.636;11.752;2023-10-13T08:32:27;88.90;;;39.78;;
78053;SDS011;67726;45.636;11.752;2023-10-13T08:34:57;84.10;;;39.42;;
78053;SDS011;67726;45.636;11.752;2023-10-13T08:37:24;85.95;;;37.63;;
78053;SDS011;67726;45.636;11.752;2023-10-13T08:39:51;83.85;;;38.58;;
78053;SDS011;67726;45.636;11.752;2023-10-13T08:42:34;83.97;;;37.50;;
78053;SDS011;67726;45.636;11.752;2023-10-13T08:45:09;84.90;;;38.63;;
78053;SDS011;67726;45.636;11.752;2023-10-13T08:47:48;78.07;;;36.78;;
78053;SDS011;67726;45.636;11.752;2023-10-13T08:50:35;82.03;;;38.85;;
78053;SDS011;67726;45.636;11.752;2023-10-13T08:53:23;80.15;;;37.88;;
78053;SDS011;67726;45.636;11.752;2023-10-13T08:58:27;82.82;;;38.85;;
78053;SDS011;67726;45.636;11.752;2023-10-13T09:01:12;80.28;;;37.47;;
78053;SDS011;67726;45.636;11.752;2023-10-13T09:03:40;77.95;;;37.20;;
78053;SDS011;67726;45.636;11.752;2023-10-13T09:06:09;84.30;;;37.67;;
78053;SDS011;67726;45.636;11.752;2023-10-13T09:08:39;81.43;;;38.97;;
78053;SDS011;67726;45.636;11.752;2023-10-13T09:11:33;80.75;;;38.75;;
78053;SDS011;67726;45.636;11.752;2023-10-13T09:14:15;72.65;;;35.50;;
78053;SDS011;67726;45.636;11.752;2023-10-13T09:17:16;80.13;;;37.25;;
78053;SDS011;67726;45.636;11.752;2023-10-13T09:19:51;74.72;;;37.85;;
78053;SDS011;67726;45.636;11.752;2023-10-13T09:22:27;78.03;;;37.37;;
78053;SDS011;67726;45.636;11.752;2023-10-13T09:25:03;78.20;;;36.28;;
78053;SDS011;67726;45.636;11.752;2023-10-13T09:27:30;79.15;;;37.35;;
78053;SDS011;67726;45.636;11.752;2023-10-13T09:30:02;80.55;;;36.25;;
78053;SDS011;67726;45.636;11.752;2023-10-13T09:32:43;79.55;;;35.45;;
78053;SDS011;67726;45.636;11.752;2023-10-13T09:35:20;82.67;;;37.53;;
78053;SDS011;67726;45.636;11.752;2023-10-13T09:37:52;81.35;;;37.22;;
78053;SDS011;67726;45.636;11.752;2023-10-13T09:40:21;71.80;;;36.13;;
78053;SDS011;67726;45.636;11.752;2023-10-13T09:42:51;81.60;;;39.17;;
78053;SDS011;67726;45.636;11.752;2023-10-13T09:45:22;86.82;;;38.70;;
78053;SDS011;67726;45.636;11.752;2023-10-13T09:47:52;83.13;;;37.20;;
78053;SDS011;67726;45.636;11.752;2023-10-13T09:50:31;81.78;;;38.53;;
78053;SDS011;67726;45.636;11.752;2023-10-13T09:53:05;79.80;;;36.90;;
78053;SDS011;67726;45.636;11.752;2023-10-13T09:55:41;81.30;;;36.78;;
78053;SDS011;67726;45.636;11.752;2023-10-13T09:58:11;80.25;;;38.70;;
78053;SDS011;67726;45.636;11.752;2023-10-13T10:03:23;75.50;;;36.70;;
78053;SDS011;67726;45.636;11.752;2023-10-13T10:05:56;71.20;;;35.70;;
78053;SDS011;67726;45.636;11.752;2023-10-13T10:08:32;73.72;;;37.15;;
78053;SDS011;67726;45.636;11.752;2023-10-13T10:13:35;75.13;;;38.43;;
78053;SDS011;67726;45.636;11.752;2023-10-13T10:16:20;71.63;;;37.92;;
78053;SDS011;67726;45.636;11.752;2023-10-13T10:19:07;76.88;;;37.90;;
78053;SDS011;67726;45.636;11.752;2023-10-13T10:21:35;81.50;;;37.37;;
78053;SDS011;67726;45.636;11.752;2023-10-13T10:24:02;77.93;;;36.95;;
78053;SDS011;67726;45.636;11.752;2023-10-13T10:26:49;86.63;;;39.25;;
78053;SDS011;67726;45.636;11.752;2023-10-13T10:29:17;74.50;;;36.40;;
78053;SDS011;67726;45.636;11.752;2023-10-13T10:31:42;78.30;;;36.97;;
78053;SDS011;67726;45.636;11.752;2023-10-13T10:34:14;75.60;;;37.35;;
78053;SDS011;67726;45.636;11.752;2023-10-13T10:36:54;83.20;;;39.90;;
78053;SDS011;67726;45.636;11.752;2023-10-13T10:39:20;78.53;;;39.83;;
78053;SDS011;67726;45.636;11.752;2023-10-13T10:42:06;80.32;;;36.80;;
78053;SDS011;67726;45.636;11.752;2023-10-13T10:44:40;88.03;;;41.27;;
78053;SDS011;67726;45.636;11.752;2023-10-13T10:49:39;74.43;;;38.35;;
78053;SDS011;67726;45.636;11.752;2023-10-13T10:52:07;75.25;;;38.55;;
78053;SDS011;67726;45.636;11.752;2023-10-13T10:54:43;74.55;;;37.92;;
78053;SDS011;67726;45.636;11.752;2023-10-13T10:57:22;72.13;;;36.60;;
78053;SDS011;67726;45.636;11.752;2023-10-13T10:59:54;73.93;;;37.70;;
78053;SDS011;67726;45.636;11.752;2023-10-13T11:02:36;81.65;;;36.92;;
78053;SDS011;67726;45.636;11.752;2023-10-13T11:05:06;68.55;;;35.67;;
78053;SDS011;67726;45.636;11.752;2023-10-13T11:07:34;82.55;;;38.13;;
78053;SDS011;67726;45.636;11.752;2023-10-13T11:10:10;73.13;;;36.90;;
78053;SDS011;67726;45.636;11.752;2023-10-13T11:12:53;74.78;;;37.85;;
78053;SDS011;67726;45.636;11.752;2023-10-13T11:15:45;70.88;;;37.20;;
78053;SDS011;67726;45.636;11.752;2023-10-13T11:18:11;74.35;;;37.08;;
78053;SDS011;67726;45.636;11.752;2023-10-13T11:20:59;67.95;;;35.10;;
78053;SDS011;67726;45.636;11.752;2023-10-13T11:23:24;65.27;;;35.13;;
78053;SDS011;67726;45.636;11.752;2023-10-13T11:26:00;70.97;;;35.67;;
78053;SDS011;67726;45.636;11.752;2023-10-13T11:28:26;78.63;;;38.95;;
78053;SDS011;67726;45.636;11.752;2023-10-13T11:30:56;73.13;;;35.80;;
78053;SDS011;67726;45.636;11.752;2023-10-13T11:33:35;71.00;;;35.72;;
78053;SDS011;67726;45.636;11.752;2023-10-13T11:36:11;72.13;;;38.50;;
78053;SDS011;67726;45.636;11.752;2023-10-13T11:38:47;70.45;;;35.83;;
78053;SDS011;67726;45.636;11.752;2023-10-13T11:41:13;71.10;;;36.10;;
78053;SDS011;67726;45.636;11.752;2023-10-13T11:43:45;75.85;;;38.10;;
78053;SDS011;67726;45.636;11.752;2023-10-13T11:49:04;70.68;;;35.30;;
78053;SDS011;67726;45.636;11.752;2023-10-13T11:51:44;72.40;;;37.27;;
78053;SDS011;67726;45.636;11.752;2023-10-13T11:54:15;66.70;;;35.35;;
78053;SDS011;67726;45.636;11.752;2023-10-13T11:56:42;66.00;;;35.50;;
78053;SDS011;67726;45.636;11.752;2023-10-13T11:59:09;72.10;;;37.85;;
78053;SDS011;67726;45.636;11.752;2023-10-13T12:01:49;71.35;;;35.25;;
78053;SDS011;67726;45.636;11.752;2023-10-13T12:04:35;70.70;;;37.20;;
78053;SDS011;67726;45.636;11.752;2023-10-13T12:07:22;67.82;;;36.30;;
78053;SDS011;67726;45.636;11.752;2023-10-13T12:10:06;67.70;;;37.60;;
78053;SDS011;67726;45.636;11.752;2023-10-13T12:12:40;69.43;;;37.55;;
78053;SDS011;67726;45.636;11.752;2023-10-13T12:15:08;66.90;;;35.72;;
78053;SDS011;67726;45.636;11.752;2023-10-13T12:17:35;66.00;;;34.97;;
78053;SDS011;67726;45.636;11.752;2023-10-13T12:20:02;68.55;;;35.33;;
78053;SDS011;67726;45.636;11.752;2023-10-13T12:22:35;68.53;;;36.08;;
78053;SDS011;67726;45.636;11.752;2023-10-13T12:25:07;66.10;;;36.13;;
78053;SDS011;67726;45.636;11.752;2023-10-13T12:27:52;64.38;;;35.08;;
78053;SDS011;67726;45.636;11.752;2023-10-13T12:30:22;69.50;;;36.00;;
78053;SDS011;67726;45.636;11.752;2023-10-13T12:33:01;61.67;;;34.30;;
78053;SDS011;67726;45.636;11.752;2023-10-13T12:35:39;61.05;;;34.50;;
78053;SDS011;67726;45.636;11.752;2023-10-13T12:38:23;67.05;;;36.03;;
78053;SDS011;67726;45.636;11.752;2023-10-13T12:41:08;66.45;;;36.30;;
78053;SDS011;67726;45.636;11.752;2023-10-13T12:43:52;65.50;;;33.60;;
78053;SDS011;67726;45.636;11.752;2023-10-13T12:46:36;65.90;;;34.72;;
78053;SDS011;67726;45.636;11.752;2023-10-13T12:49:20;67.53;;;33.95;;
78053;SDS011;67726;45.636;11.752;2023-10-13T12:52:04;71.30;;;35.88;;
78053;SDS011;67726;45.636;11.752;2023-10-13T12:54:40;65.90;;;34.13;;
78053;SDS011;67726;45.636;11.752;2023-10-13T12:57:11;64.43;;;35.63;;
78053;SDS011;67726;45.636;11.752;2023-10-13T12:59:38;66.22;;;33.83;;
78053;SDS011;67726;45.636;11.752;2023-10-13T13:02:04;59.65;;;31.92;;
78053;SDS011;67726;45.636;11.752;2023-10-13T13:04:32;66.35;;;32.28;;
78053;SDS011;67726;45.636;11.752;2023-10-13T13:07:01;68.73;;;33.00;;
78053;SDS011;67726;45.636;11.752;2023-10-13T13:09:31;69.22;;;32.55;;
78053;SDS011;67726;45.636;11.752;2023-10-13T13:11:57;64.80;;;33.55;;
78053;SDS011;67726;45.636;11.752;2023-10-13T13:14:23;67.50;;;34.95;;
78053;SDS011;67726;45.636;11.752;2023-10-13T13:16:55;66.57;;;36.03;;
78053;SDS011;67726;45.636;11.752;2023-10-13T13:19:34;68.03;;;33.95;;
78053;SDS011;67726;45.636;11.752;2023-10-13T13:22:04;66.95;;;34.90;;
78053;SDS011;67726;45.636;11.752;2023-10-13T13:24:34;71.90;;;36.50;;
78053;SDS011;67726;45.636;11.752;2023-10-13T13:27:00;69.10;;;36.43;;
78053;SDS011;67726;45.636;11.752;2023-10-13T13:29:28;68.10;;;35.58;;
78053;SDS011;67726;45.636;11.752;2023-10-13T13:31:55;66.82;;;34.83;;
78053;SDS011;67726;45.636;11.752;2023-10-13T13:34:20;69.22;;;35.67;;
78053;SDS011;67726;45.636;11.752;2023-10-13T13:36:47;70.00;;;34.80;;
78053;SDS011;67726;45.636;11.752;2023-10-13T13:39:18;69.10;;;35.35;;
78053;SDS011;67726;45.636;11.752;2023-10-13T13:41:53;63.50;;;33.55;;
78053;SDS011;67726;45.636;11.752;2023-10-13T13:44:22;67.63;;;34.05;;
78053;SDS011;67726;45.636;11.752;2023-10-13T13:46:57;62.38;;;33.00;;
78053;SDS011;67726;45.636;11.752;2023-10-13T13:49:23;66.97;;;33.30;;
78053;SDS011;67726;45.636;11.752;2023-10-13T13:52:04;65.60;;;34.40;;
78053;SDS011;67726;45.636;11.752;2023-10-13T13:54:30;71.13;;;35.10;;
78053;SDS011;67726;45.636;11.752;2023-10-13T13:56:56;63.85;;;33.25;;
78053;SDS011;67726;45.636;11.752;2023-10-13T13:59:22;62.20;;;32.63;;
78053;SDS011;67726;45.636;11.752;2023-10-13T14:01:48;63.08;;;31.75;;
78053;SDS011;67726;45.636;11.752;2023-10-13T14:04:17;61.75;;;32.60;;
78053;SDS011;67726;45.636;11.752;2023-10-13T14:06:44;60.50;;;30.47;;
78053;SDS011;67726;45.636;11.752;2023-10-13T14:09:10;64.63;;;32.75;;
78053;SDS011;67726;45.636;11.752;2023-10-13T14:11:41;68.35;;;34.28;;
78053;SDS011;67726;45.636;11.752;2023-10-13T14:14:25;69.85;;;33.10;;
78053;SDS011;67726;45.636;11.752;2023-10-13T14:16:51;57.73;;;31.10;;
78053;SDS011;67726;45.636;11.752;2023-10-13T14:19:18;60.78;;;31.00;;
78053;SDS011;67726;45.636;11.752;2023-10-13T14:21:57;56.17;;;31.25;;
78053;SDS011;67726;45.636;11.752;2023-10-13T14:24:23;60.97;;;32.40;;
78053;SDS011;67726;45.636;11.752;2023-10-13T14:26:55;56.77;;;30.60;;
78053;SDS011;67726;45.636;11.752;2023-10-13T14:29:23;65.80;;;32.92;;
78053;SDS011;67726;45.636;11.752;2023-10-13T14:31:51;55.55;;;31.70;;
78053;SDS011;67726;45.636;11.752;2023-10-13T14:34:18;63.45;;;32.28;;
78053;SDS011;67726;45.636;11.752;2023-10-13T14:36:47;64.63;;;31.77;;
78053;SDS011;67726;45.636;11.752;2023-10-13T14:39:13;61.83;;;30.97;;
78053;SDS011;67726;45.636;11.752;2023-10-13T14:41:39;64.75;;;30.92;;
78053;SDS011;67726;45.636;11.752;2023-10-13T14:44:05;60.67;;;33.15;;
78053;SDS011;67726;45.636;11.752;2023-10-13T14:46:31;64.28;;;32.70;;
78053;SDS011;67726;45.636;11.752;2023-10-13T14:49:01;62.78;;;32.90;;
78053;SDS011;67726;45.636;11.752;2023-10-13T14:51:28;58.87;;;31.80;;
78053;SDS011;67726;45.636;11.752;2023-10-13T14:53:54;59.72;;;32.60;;
78053;SDS011;67726;45.636;11.752;2023-10-13T14:56:24;72.70;;;35.58;;
78053;SDS011;67726;45.636;11.752;2023-10-13T14:58:51;66.10;;;32.58;;
78053;SDS011;67726;45.636;11.752;2023-10-13T15:01:18;62.25;;;32.70;;